Time;durP1;ratioP1;P1;durP2;ratioP2;P2;SDS_P1;SDS_P2;PMS_P1;PMS_P2;Temp;Humidity;BMP_temperature;BMP_pressure;BME280_temperature;BME280_humidity;BME280_pressure;Samples;Min_cycle;Max_cycle;Signal;HPM_P1;HPM_P2
2021/12/06 00:00:13;;;;;;;9.55;7.93;;;;;;;;;;6242863;23;20170;-64
2021/12/06 00:02:41;;;;;;;8.90;5.78;;;;;;;;;;6244771;23;20209;-64
2021/12/06 00:05:11;;;;;;;9.57;5.78;;;;;;;;;;6244354;23;20228;-64
2021/12/06 00:07:39;;;;;;;8.13;5.10;;;;;;;;;;6243736;23;20224;-63
2021/12/06 00:10:15;;;;;;;9.25;5.88;;;;;;;;;;6244666;23;20642;-65
2021/12/06 00:12:43;;;;;;;8.98;5.13;;;;;;;;;;6244812;23;20182;-64
2021/12/06 00:15:12;;;;;;;7.47;4.60;;;;;;;;;;6245115;23;20197;-64
2021/12/06 00:17:45;;;;;;;7.32;3.72;;;;;;;;;;6244738;23;20170;-64
2021/12/06 00:20:19;;;;;;;8.77;5.38;;;;;;;;;;6244912;23;20155;-64
2021/12/06 00:22:48;;;;;;;9.38;4.95;;;;;;;;;;6244424;23;20154;-67
2021/12/06 00:25:16;;;;;;;7.90;5.75;;;;;;;;;;6245086;23;20217;-64
2021/12/06 00:27:47;;;;;;;8.82;4.95;;;;;;;;;;6243777;23;20538;-65
2021/12/06 00:30:16;;;;;;;8.55;5.70;;;;;;;;;;6244750;23;20185;-64
2021/12/06 00:32:44;;;;;;;9.75;7.43;;;;;;;;;;6244234;23;20640;-64
2021/12/06 00:35:18;;;;;;;10.18;5.80;;;;;;;;;;6244997;23;20174;-64
2021/12/06 00:37:56;;;;;;;7.90;5.43;;;;;;;;;;6244962;23;20157;-65
2021/12/06 00:40:24;;;;;;;13.95;6.45;;;;;;;;;;6244411;23;20166;-64
2021/12/06 00:42:53;;;;;;;9.00;5.15;;;;;;;;;;6244231;23;20198;-64
2021/12/06 00:45:21;;;;;;;9.80;5.35;;;;;;;;;;6244715;23;20665;-64
2021/12/06 00:47:53;;;;;;;8.70;5.45;;;;;;;;;;6244514;23;20193;-64
2021/12/06 00:50:26;;;;;;;7.35;5.28;;;;;;;;;;6244155;23;20158;-65
2021/12/06 00:52:56;;;;;;;7.45;5.35;;;;;;;;;;6244637;23;20186;-64
2021/12/06 00:55:24;;;;;;;10.52;5.82;;;;;;;;;;6244023;23;20200;-66
2021/12/06 00:57:58;;;;;;;13.77;5.68;;;;;;;;;;6243717;22;20194;-65
2021/12/06 01:00:28;;;;;;;9.05;5.97;;;;;;;;;;6244202;23;20183;-65
2021/12/06 01:02:56;;;;;;;8.52;5.85;;;;;;;;;;6244530;23;20177;-65
2021/12/06 01:05:24;;;;;;;5.20;3.70;;;;;;;;;;6244681;23;20486;-64
2021/12/06 01:07:54;;;;;;;7.93;4.57;;;;;;;;;;6243956;23;20630;-64
2021/12/06 01:10:26;;;;;;;8.77;5.35;;;;;;;;;;6243762;23;20166;-66
2021/12/06 01:12:54;;;;;;;8.32;5.25;;;;;;;;;;6244026;23;20232;-64
2021/12/06 01:15:22;;;;;;;7.82;4.80;;;;;;;;;;6243578;23;20628;-64
2021/12/06 01:17:50;;;;;;;7.35;5.05;;;;;;;;;;6244090;23;20555;-64
2021/12/06 01:20:22;;;;;;;5.50;4.18;;;;;;;;;;6244162;23;20219;-64
2021/12/06 01:22:53;;;;;;;6.32;4.55;;;;;;;;;;6243779;23;20158;-65
2021/12/06 01:25:31;;;;;;;5.68;3.75;;;;;;;;;;6244503;23;20193;-66
2021/12/06 01:30:59;;;;;;;6.97;4.10;;;;;;;;;;6243786;23;20166;-64
2021/12/06 01:34:02;;;;;;;8.30;3.83;;;;;;;;;;6243845;23;20190;-64
2021/12/06 01:39:18;;;;;;;7.78;3.80;;;;;;;;;;6243620;23;20451;-64
2021/12/06 01:41:49;;;;;;;6.85;3.75;;;;;;;;;;6244330;23;20193;-64
2021/12/06 01:44:19;;;;;;;5.68;3.13;;;;;;;;;;6243152;23;20161;-64
2021/12/06 01:46:47;;;;;;;8.00;3.75;;;;;;;;;;6242420;23;20186;-64
2021/12/06 01:49:15;;;;;;;5.72;3.30;;;;;;;;;;6244352;23;20162;-66
2021/12/06 01:51:46;;;;;;;5.82;3.30;;;;;;;;;;6243576;23;20640;-64
2021/12/06 01:54:14;;;;;;;6.10;3.67;;;;;;;;;;6243770;23;20220;-64
2021/12/06 01:56:43;;;;;;;6.65;4.10;;;;;;;;;;6243925;23;20173;-64
2021/12/06 01:59:12;;;;;;;3.55;2.65;;;;;;;;;;6244383;22;20193;-64
2021/12/06 02:02:01;;;;;;;4.65;2.88;;;;;;;;;;6243613;23;20166;-66
2021/12/06 02:04:30;;;;;;;4.78;2.53;;;;;;;;;;6244885;23;20172;-64
2021/12/06 02:06:58;;;;;;;4.03;2.60;;;;;;;;;;6245886;23;20166;-64
2021/12/06 02:09:43;;;;;;;4.05;2.53;;;;;;;;;;6245893;23;20664;-64
2021/12/06 02:12:11;;;;;;;5.13;3.45;;;;;;;;;;6246203;23;20554;-64
2021/12/06 02:14:49;;;;;;;5.53;3.45;;;;;;;;;;6246158;23;20495;-64
2021/12/06 02:17:25;;;;;;;4.63;3.13;;;;;;;;;;6246733;23;20154;-64
2021/12/06 02:19:57;;;;;;;6.82;3.63;;;;;;;;;;6246119;23;20165;-64
2021/12/06 02:22:28;;;;;;;4.07;3.00;;;;;;;;;;6246975;23;20151;-64
2021/12/06 02:24:57;;;;;;;4.97;3.00;;;;;;;;;;6246736;23;20177;-64
2021/12/06 02:27:30;;;;;;;4.65;3.55;;;;;;;;;;6246420;23;20169;-64
2021/12/06 02:29:59;;;;;;;5.75;2.72;;;;;;;;;;6246234;23;20166;-64
2021/12/06 02:32:31;;;;;;;4.50;3.10;;;;;;;;;;6246573;23;20256;-64
2021/12/06 02:35:00;;;;;;;7.60;4.50;;;;;;;;;;6246132;23;20193;-64
2021/12/06 02:37:30;;;;;;;4.63;3.50;;;;;;;;;;6246732;23;20178;-64
2021/12/06 02:39:57;;;;;;;7.65;3.60;;;;;;;;;;6246042;23;20185;-64
2021/12/06 02:42:25;;;;;;;5.88;3.00;;;;;;;;;;6246432;23;20167;-64
2021/12/06 02:44:54;;;;;;;5.97;3.53;;;;;;;;;;6246241;23;20166;-64
2021/12/06 02:47:22;;;;;;;5.38;3.33;;;;;;;;;;6246026;23;20169;-64
2021/12/06 02:49:50;;;;;;;5.38;3.03;;;;;;;;;;6246157;23;20170;-64
2021/12/06 02:52:17;;;;;;;5.50;2.95;;;;;;;;;;6246345;23;20194;-64
2021/12/06 02:54:54;;;;;;;4.35;2.75;;;;;;;;;;6245420;23;20163;-65
2021/12/06 02:57:32;;;;;;;4.90;2.78;;;;;;;;;;6246078;23;20190;-64
2021/12/06 03:00:00;;;;;;;5.38;2.50;;;;;;;;;;6246383;23;20161;-64
2021/12/06 03:02:30;;;;;;;4.95;2.90;;;;;;;;;;6246402;23;20352;-64
2021/12/06 03:05:00;;;;;;;5.28;2.70;;;;;;;;;;6246468;23;20174;-64
2021/12/06 03:07:29;;;;;;;7.43;3.67;;;;;;;;;;6246310;23;20616;-64
2021/12/06 03:09:58;;;;;;;5.57;3.58;;;;;;;;;;6245659;23;20639;-64
2021/12/06 03:12:27;;;;;;;5.43;2.75;;;;;;;;;;6245481;23;20201;-64
2021/12/06 03:14:56;;;;;;;4.63;3.17;;;;;;;;;;6245682;23;20196;-64
2021/12/06 03:17:25;;;;;;;8.35;3.22;;;;;;;;;;6245902;23;20316;-64
2021/12/06 03:19:52;;;;;;;4.68;2.92;;;;;;;;;;6240023;23;20181;-64
2021/12/06 03:22:23;;;;;;;5.00;2.92;;;;;;;;;;6238257;23;20170;-65
2021/12/06 03:24:51;;;;;;;5.68;3.50;;;;;;;;;;6242184;23;20163;-64
2021/12/06 03:27:20;;;;;;;5.00;3.45;;;;;;;;;;6245262;23;20712;-64
2021/12/06 03:29:47;;;;;;;5.75;3.03;;;;;;;;;;6245749;23;20606;-64
2021/12/06 03:32:15;;;;;;;5.30;3.45;;;;;;;;;;6244916;23;20228;-64
2021/12/06 03:34:43;;;;;;;6.70;3.08;;;;;;;;;;6246101;23;20190;-64
2021/12/06 03:37:11;;;;;;;6.13;3.10;;;;;;;;;;6245532;23;20169;-64
2021/12/06 03:39:39;;;;;;;7.47;3.95;;;;;;;;;;6245805;23;20167;-64
2021/12/06 03:42:09;;;;;;;5.60;3.15;;;;;;;;;;6244981;23;20166;-64
2021/12/06 03:44:38;;;;;;;9.27;3.10;;;;;;;;;;6245091;23;20166;-64
2021/12/06 03:47:09;;;;;;;5.25;3.00;;;;;;;;;;6245913;23;20242;-64
2021/12/06 03:49:39;;;;;;;3.88;2.95;;;;;;;;;;6245894;23;20150;-64
2021/12/06 03:52:07;;;;;;;5.28;3.65;;;;;;;;;;6245846;23;20162;-63
2021/12/06 03:54:35;;;;;;;3.75;2.55;;;;;;;;;;6244027;23;20241;-64
2021/12/06 03:57:03;;;;;;;6.90;2.92;;;;;;;;;;6245516;23;20221;-64
2021/12/06 03:59:33;;;;;;;6.78;3.40;;;;;;;;;;6245185;23;20193;-64
2021/12/06 04:02:05;;;;;;;4.80;2.95;;;;;;;;;;6245696;23;20173;-67
2021/12/06 04:04:33;;;;;;;4.35;3.10;;;;;;;;;;6245858;23;20155;-64
2021/12/06 04:07:00;;;;;;;4.78;2.50;;;;;;;;;;6245671;23;20262;-64
2021/12/06 04:09:28;;;;;;;7.53;3.03;;;;;;;;;;6245821;23;20236;-64
2021/12/06 04:11:58;;;;;;;5.00;3.22;;;;;;;;;;6246026;23;20162;-64
2021/12/06 04:14:26;;;;;;;4.25;3.20;;;;;;;;;;6245189;23;20190;-64
2021/12/06 04:16:53;;;;;;;4.97;3.53;;;;;;;;;;6245416;23;20241;-64
2021/12/06 04:19:22;;;;;;;5.43;3.15;;;;;;;;;;6245771;23;20232;-64
2021/12/06 04:21:50;;;;;;;4.97;3.30;;;;;;;;;;6245285;23;20242;-64
2021/12/06 04:24:18;;;;;;;5.00;3.05;;;;;;;;;;6245681;23;20170;-64
2021/12/06 04:26:46;;;;;;;5.35;3.35;;;;;;;;;;6244832;23;20245;-64
2021/12/06 04:29:14;;;;;;;5.47;3.00;;;;;;;;;;6245045;23;20181;-64
2021/12/06 04:31:46;;;;;;;5.78;3.20;;;;;;;;;;6245592;23;20216;-64
2021/12/06 04:34:15;;;;;;;5.78;3.85;;;;;;;;;;6245450;23;20240;-64
2021/12/06 04:36:45;;;;;;;4.93;3.35;;;;;;;;;;6245872;23;20488;-64
2021/12/06 04:39:18;;;;;;;3.55;2.35;;;;;;;;;;6245306;23;20166;-64
2021/12/06 04:41:46;;;;;;;6.50;3.13;;;;;;;;;;6245925;23;20200;-64
2021/12/06 04:44:16;;;;;;;3.90;2.95;;;;;;;;;;6245175;23;20452;-64
2021/12/06 04:46:46;;;;;;;4.07;3.25;;;;;;;;;;6245056;23;20162;-64
2021/12/06 04:49:14;;;;;;;5.43;3.40;;;;;;;;;;6244970;23;20249;-64
2021/12/06 04:51:43;;;;;;;6.05;4.22;;;;;;;;;;6245269;23;20166;-64
2021/12/06 04:54:12;;;;;;;5.78;3.40;;;;;;;;;;6244683;23;20277;-64
2021/12/06 04:56:41;;;;;;;5.68;3.92;;;;;;;;;;6245157;23;20169;-64
2021/12/06 04:59:20;;;;;;;5.22;4.00;;;;;;;;;;6244948;23;20219;-63
2021/12/06 05:01:51;;;;;;;9.43;4.53;;;;;;;;;;6245400;23;20154;-64
2021/12/06 05:04:22;;;;;;;6.63;5.18;;;;;;;;;;6245176;23;20166;-64
2021/12/06 05:06:54;;;;;;;5.22;4.13;;;;;;;;;;6245209;23;20527;-64
2021/12/06 05:09:26;;;;;;;9.18;4.78;;;;;;;;;;6245000;23;20221;-64
2021/12/06 05:11:54;;;;;;;5.95;4.50;;;;;;;;;;6245530;23;20181;-64
2021/12/06 05:14:22;;;;;;;7.28;4.38;;;;;;;;;;6243444;23;20191;-64
2021/12/06 05:16:50;;;;;;;7.75;5.45;;;;;;;;;;6244151;23;20197;-65
2021/12/06 05:19:20;;;;;;;6.25;4.43;;;;;;;;;;6245050;23;20168;-64
2021/12/06 05:21:48;;;;;;;7.43;5.32;;;;;;;;;;6244788;23;20166;-63
2021/12/06 05:24:16;;;;;;;6.90;4.80;;;;;;;;;;6245221;23;20162;-64
2021/12/06 05:26:47;;;;;;;5.80;4.03;;;;;;;;;;6244926;23;20197;-64
2021/12/06 05:29:17;;;;;;;10.55;5.80;;;;;;;;;;6244830;23;20161;-63
2021/12/06 05:31:55;;;;;;;6.78;5.20;;;;;;;;;;6244762;23;20162;-63
2021/12/06 05:34:30;;;;;;;8.57;5.20;;;;;;;;;;6244718;23;20182;-63
2021/12/06 05:36:57;;;;;;;9.57;4.88;;;;;;;;;;6244930;23;20200;-63
2021/12/06 05:39:30;;;;;;;11.13;6.63;;;;;;;;;;6244641;23;20169;-63
2021/12/06 05:41:59;;;;;;;8.90;6.75;;;;;;;;;;6245448;23;20154;-63
2021/12/06 05:44:29;;;;;;;13.50;7.45;;;;;;;;;;6244983;23;20169;-65
2021/12/06 05:46:57;;;;;;;11.27;8.20;;;;;;;;;;6245313;23;20185;-63
2021/12/06 05:49:25;;;;;;;21.83;11.50;;;;;;;;;;6244906;23;20245;-63
2021/12/06 05:51:59;;;;;;;14.82;8.23;;;;;;;;;;6244331;23;20245;-63
2021/12/06 05:54:30;;;;;;;8.95;6.00;;;;;;;;;;6244442;23;20192;-63
2021/12/06 05:56:59;;;;;;;11.88;6.63;;;;;;;;;;6244429;23;20162;-63
2021/12/06 05:59:29;;;;;;;9.68;5.82;;;;;;;;;;6245284;23;20482;-63
2021/12/06 06:01:56;;;;;;;6.70;5.45;;;;;;;;;;6244779;23;20205;-63
2021/12/06 06:04:26;;;;;;;10.50;5.78;;;;;;;;;;6244796;23;20181;-63
2021/12/06 06:06:55;;;;;;;7.97;5.93;;;;;;;;;;6244658;23;20166;-63
2021/12/06 06:09:23;;;;;;;9.07;5.88;;;;;;;;;;6245042;23;20174;-63
2021/12/06 06:11:52;;;;;;;7.95;5.28;;;;;;;;;;6244448;23;20166;-62
2021/12/06 06:14:21;;;;;;;8.20;6.40;;;;;;;;;;6244453;23;20200;-63
2021/12/06 06:16:51;;;;;;;10.45;6.50;;;;;;;;;;6244650;23;20250;-64
2021/12/06 06:19:20;;;;;;;9.38;6.13;;;;;;;;;;6244646;23;20240;-64
2021/12/06 06:22:01;;;;;;;15.55;7.18;;;;;;;;;;6244338;23;20246;-64
2021/12/06 06:24:29;;;;;;;9.43;6.80;;;;;;;;;;6244198;23;20154;-64
2021/12/06 06:26:57;;;;;;;7.15;5.80;;;;;;;;;;6244566;23;20163;-64
2021/12/06 06:29:26;;;;;;;6.72;5.47;;;;;;;;;;6244631;23;20197;-64
2021/12/06 06:31:53;;;;;;;7.43;6.35;;;;;;;;;;6241832;23;20166;-64
2021/12/06 06:34:27;;;;;;;8.95;6.10;;;;;;;;;;6243314;23;20186;-64
2021/12/06 06:36:56;;;;;;;10.10;6.72;;;;;;;;;;6244607;23;20541;-64
2021/12/06 06:39:25;;;;;;;11.15;5.90;;;;;;;;;;6243923;23;20524;-64
2021/12/06 06:41:53;;;;;;;11.07;6.93;;;;;;;;;;6243637;23;20669;-64
2021/12/06 06:44:21;;;;;;;6.53;5.50;;;;;;;;;;6243035;23;20193;-64
2021/12/06 06:46:51;;;;;;;10.10;6.80;;;;;;;;;;6243708;23;20185;-64
2021/12/06 06:49:19;;;;;;;8.50;6.03;;;;;;;;;;6244379;23;20257;-64
2021/12/06 06:51:47;;;;;;;8.18;5.90;;;;;;;;;;6245360;23;20173;-64
2021/12/06 06:54:15;;;;;;;8.50;5.65;;;;;;;;;;6246314;23;20194;-64
2021/12/06 06:56:43;;;;;;;13.02;5.90;;;;;;;;;;6245428;23;20167;-64
2021/12/06 06:59:10;;;;;;;10.95;7.82;;;;;;;;;;6245593;23;20234;-64
2021/12/06 07:01:38;;;;;;;13.05;7.45;;;;;;;;;;6245828;23;20166;-65
2021/12/06 07:04:08;;;;;;;10.15;9.13;;;;;;;;;;6245772;23;20601;-64
2021/12/06 07:06:35;;;;;;;11.88;9.63;;;;;;;;;;6245673;23;20225;-64
2021/12/06 07:09:02;;;;;;;12.40;10.60;;;;;;;;;;6245793;23;20626;-64
2021/12/06 07:11:30;;;;;;;13.68;9.38;;;;;;;;;;6245765;23;20173;-64
2021/12/06 07:13:59;;;;;;;8.93;7.18;;;;;;;;;;6245816;23;20190;-64
2021/12/06 07:16:29;;;;;;;16.35;11.50;;;;;;;;;;6245511;23;20168;-64
2021/12/06 07:18:56;;;;;;;14.95;10.05;;;;;;;;;;6246201;23;20497;-66
2021/12/06 07:21:25;;;;;;;14.63;10.40;;;;;;;;;;6245939;23;20171;-64
2021/12/06 07:23:53;;;;;;;12.85;8.90;;;;;;;;;;6245063;23;20163;-64
2021/12/06 07:26:21;;;;;;;15.82;10.07;;;;;;;;;;6245649;23;20197;-64
2021/12/06 07:28:50;;;;;;;13.07;9.05;;;;;;;;;;6246033;23;20177;-64
2021/12/06 07:31:18;;;;;;;12.55;9.05;;;;;;;;;;6245586;23;20174;-65
2021/12/06 07:33:47;;;;;;;9.80;8.10;;;;;;;;;;6245316;23;20182;-64
2021/12/06 07:36:15;;;;;;;10.32;7.13;;;;;;;;;;6245300;23;20177;-64
2021/12/06 07:38:46;;;;;;;12.27;8.50;;;;;;;;;;6245957;23;20491;-64
2021/12/06 07:41:14;;;;;;;12.27;8.45;;;;;;;;;;6245084;23;20158;-64
2021/12/06 07:43:42;;;;;;;11.88;8.48;;;;;;;;;;6245522;23;20181;-64
2021/12/06 07:46:11;;;;;;;8.60;6.78;;;;;;;;;;6245196;23;20175;-66
2021/12/06 07:48:39;;;;;;;11.43;6.78;;;;;;;;;;6245413;23;20484;-66
2021/12/06 07:51:08;;;;;;;9.95;6.60;;;;;;;;;;6243217;23;20235;-64
2021/12/06 07:53:37;;;;;;;8.05;7.25;;;;;;;;;;6245577;23;20235;-64
2021/12/06 07:56:06;;;;;;;9.98;6.65;;;;;;;;;;6245537;23;20250;-64
2021/12/06 07:58:33;;;;;;;7.70;5.82;;;;;;;;;;6245650;23;20190;-64
2021/12/06 08:01:01;;;;;;;8.38;5.53;;;;;;;;;;6245576;23;20167;-64
2021/12/06 08:03:30;;;;;;;9.52;6.55;;;;;;;;;;6244998;23;20497;-64
2021/12/06 08:05:59;;;;;;;9.35;7.22;;;;;;;;;;6240197;23;20245;-64
2021/12/06 08:08:29;;;;;;;11.23;6.28;;;;;;;;;;6242663;23;20168;-64
2021/12/06 08:11:02;;;;;;;8.98;7.10;;;;;;;;;;6242381;23;20170;-64
2021/12/06 08:13:32;;;;;;;10.93;7.45;;;;;;;;;;6244297;23;20154;-65
2021/12/06 08:16:04;;;;;;;12.10;8.80;;;;;;;;;;6244831;23;20202;-64
2021/12/06 08:18:32;;;;;;;15.95;9.45;;;;;;;;;;6244994;23;20254;-64
2021/12/06 08:21:02;;;;;;;18.63;11.25;;;;;;;;;;6245019;23;20245;-64
2021/12/06 08:23:31;;;;;;;17.70;10.27;;;;;;;;;;6244909;23;20157;-64
2021/12/06 08:28:37;;;;;;;14.20;8.88;;;;;;;;;;6204246;22;20270;-75
2021/12/06 08:31:04;;;;;;;13.50;9.38;;;;;;;;;;6179169;23;20202;-73
2021/12/06 08:33:32;;;;;;;11.10;8.82;;;;;;;;;;6184138;23;20171;-73
2021/12/06 08:36:00;;;;;;;14.73;9.23;;;;;;;;;;6185007;23;20695;-73
2021/12/06 08:38:29;;;;;;;13.90;9.50;;;;;;;;;;6184104;23;20168;-74
2021/12/06 08:40:58;;;;;;;11.05;7.97;;;;;;;;;;6184912;23;20692;-72
2021/12/06 08:43:31;;;;;;;11.82;8.73;;;;;;;;;;6184493;23;20164;-75
2021/12/06 08:46:01;;;;;;;11.40;8.10;;;;;;;;;;6183968;23;20164;-73
2021/12/06 08:48:31;;;;;;;10.50;8.00;;;;;;;;;;6184395;23;20159;-73
2021/12/06 08:50:59;;;;;;;10.60;8.75;;;;;;;;;;6185072;23;20164;-73
2021/12/06 08:53:26;;;;;;;11.20;7.97;;;;;;;;;;6184032;23;20255;-73
2021/12/06 08:55:54;;;;;;;12.63;8.68;;;;;;;;;;6184368;23;20237;-73
2021/12/06 08:58:22;;;;;;;11.98;7.82;;;;;;;;;;6184306;23;20195;-74
2021/12/06 09:00:50;;;;;;;14.77;8.98;;;;;;;;;;6184671;23;20168;-73
2021/12/06 09:03:19;;;;;;;11.80;8.38;;;;;;;;;;6184170;23;20191;-73
2021/12/06 09:05:48;;;;;;;12.68;9.80;;;;;;;;;;6184952;23;20622;-74
2021/12/06 09:08:16;;;;;;;11.07;9.32;;;;;;;;;;6184390;23;20218;-73
2021/12/06 09:10:43;;;;;;;13.98;10.23;;;;;;;;;;6183959;23;20616;-74
2021/12/06 09:13:11;;;;;;;16.48;11.63;;;;;;;;;;6184170;23;20202;-73
2021/12/06 09:15:38;;;;;;;15.13;10.13;;;;;;;;;;6184720;23;20318;-75
2021/12/06 09:18:05;;;;;;;12.88;8.65;;;;;;;;;;6184953;23;20246;-73
2021/12/06 09:20:36;;;;;;;13.27;9.55;;;;;;;;;;6184527;23;20191;-73
2021/12/06 09:23:04;;;;;;;12.48;8.68;;;;;;;;;;6182753;23;20680;-73
2021/12/06 09:25:32;;;;;;;13.40;9.00;;;;;;;;;;6182117;23;20218;-73
2021/12/06 09:27:59;;;;;;;11.90;8.60;;;;;;;;;;6182920;23;20195;-73
2021/12/06 09:30:29;;;;;;;13.25;8.60;;;;;;;;;;6199249;23;20567;-73
2021/12/06 09:32:58;;;;;;;13.32;8.60;;;;;;;;;;6213787;23;20167;-73
2021/12/06 09:35:28;;;;;;;14.35;10.25;;;;;;;;;;6213433;23;20636;-75
2021/12/06 09:37:58;;;;;;;17.55;10.95;;;;;;;;;;6214231;23;20168;-74
2021/12/06 09:40:27;;;;;;;17.95;11.15;;;;;;;;;;6214955;23;20155;-74
2021/12/06 09:42:55;;;;;;;17.25;9.50;;;;;;;;;;6214469;23;20163;-74
2021/12/06 09:45:25;;;;;;;16.40;10.00;;;;;;;;;;6214694;23;20171;-74
2021/12/06 09:48:07;;;;;;;21.70;11.20;;;;;;;;;;6214540;23;20163;-73
2021/12/06 09:50:36;;;;;;;13.30;9.80;;;;;;;;;;6210730;23;20163;-74
2021/12/06 09:53:07;;;;;;;15.30;9.25;;;;;;;;;;6212659;23;20170;-73
2021/12/06 09:55:34;;;;;;;14.45;9.60;;;;;;;;;;6212253;23;20265;-74
2021/12/06 09:58:02;;;;;;;18.73;9.93;;;;;;;;;;6213658;23;20213;-74
2021/12/06 10:00:32;;;;;;;17.00;11.20;;;;;;;;;;6212774;23;20281;-73
2021/12/06 10:03:00;;;;;;;16.55;12.55;;;;;;;;;;6211910;23;20169;-75
2021/12/06 10:05:29;;;;;;;18.00;13.57;;;;;;;;;;6213972;23;20237;-73
2021/12/06 10:07:57;;;;;;;16.45;11.15;;;;;;;;;;6214707;23;20163;-74
2021/12/06 10:10:26;;;;;;;14.23;11.10;;;;;;;;;;6214200;23;20166;-73
2021/12/06 10:12:54;;;;;;;17.30;11.27;;;;;;;;;;6213796;23;20174;-74
2021/12/06 10:15:22;;;;;;;18.52;12.13;;;;;;;;;;6214013;23;20190;-73
2021/12/06 10:17:50;;;;;;;18.70;11.98;;;;;;;;;;6214275;23;20492;-73
2021/12/06 10:20:17;;;;;;;18.60;13.25;;;;;;;;;;6214256;23;20251;-73
2021/12/06 10:22:45;;;;;;;22.58;15.65;;;;;;;;;;6212848;23;20175;-73
2021/12/06 10:25:12;;;;;;;18.85;11.50;;;;;;;;;;6215798;23;20170;-73
2021/12/06 10:27:54;;;;;;;16.17;10.68;;;;;;;;;;6212372;23;20163;-73
2021/12/06 10:30:23;;;;;;;14.60;9.90;;;;;;;;;;6215559;23;20520;-74
2021/12/06 10:32:51;;;;;;;18.63;10.60;;;;;;;;;;6216204;23;20163;-75
2021/12/06 10:35:18;;;;;;;16.88;13.65;;;;;;;;;;6215192;23;20221;-75
2021/12/06 10:37:48;;;;;;;14.73;10.57;;;;;;;;;;6216360;23;20163;-72
2021/12/06 10:40:20;;;;;;;11.02;8.57;;;;;;;;;;6216224;23;20151;-73
2021/12/06 10:42:55;;;;;;;12.93;9.88;;;;;;;;;;6216267;23;20194;-77
2021/12/06 10:45:23;;;;;;;13.13;9.35;;;;;;;;;;6216244;23;20161;-73
2021/12/06 10:48:07;;;;;;;16.42;9.88;;;;;;;;;;6215898;23;20177;-73
2021/12/06 10:50:34;;;;;;;17.40;11.82;;;;;;;;;;6211110;23;20171;-75
2021/12/06 10:53:03;;;;;;;16.65;10.68;;;;;;;;;;6214508;23;20170;-74
2021/12/06 10:55:32;;;;;;;13.90;10.27;;;;;;;;;;6215424;23;20194;-73
2021/12/06 10:58:02;;;;;;;14.55;9.38;;;;;;;;;;6215335;23;20189;-73
2021/12/06 11:00:35;;;;;;;12.85;9.05;;;;;;;;;;6216103;23;20179;-72
2021/12/06 11:03:03;;;;;;;16.55;9.85;;;;;;;;;;6215575;23;20162;-73
2021/12/06 11:05:32;;;;;;;11.80;8.68;;;;;;;;;;6215786;23;20194;-73
2021/12/06 11:08:11;;;;;;;13.07;9.13;;;;;;;;;;6214375;23;20198;-74
2021/12/06 11:10:44;;;;;;;13.27;9.38;;;;;;;;;;6214896;23;20151;-73
2021/12/06 11:13:20;;;;;;;13.73;10.45;;;;;;;;;;6214360;23;20175;-73
2021/12/06 11:16:05;;;;;;;14.50;10.98;;;;;;;;;;6215245;23;20183;-73
2021/12/06 11:18:39;;;;;;;15.63;9.70;;;;;;;;;;6215581;23;20234;-73
2021/12/06 11:21:14;;;;;;;13.82;9.27;;;;;;;;;;6216008;23;20163;-73
2021/12/06 11:23:57;;;;;;;19.63;10.10;;;;;;;;;;6215109;23;20486;-73
2021/12/06 11:26:24;;;;;;;14.10;9.35;;;;;;;;;;6215826;23;20534;-75
2021/12/06 11:28:53;;;;;;;16.80;8.57;;;;;;;;;;6213108;23;20163;-74
2021/12/06 11:31:21;;;;;;;13.73;9.43;;;;;;;;;;6215856;23;20190;-73
2021/12/06 11:33:58;;;;;;;14.23;9.13;;;;;;;;;;6215753;23;20163;-73
2021/12/06 11:36:27;;;;;;;13.07;8.60;;;;;;;;;;6215391;23;20182;-73
2021/12/06 11:38:59;;;;;;;15.55;10.02;;;;;;;;;;6215099;23;20175;-73
2021/12/06 11:41:26;;;;;;;12.70;8.55;;;;;;;;;;6215566;23;20548;-73
2021/12/06 11:43:55;;;;;;;12.75;9.00;;;;;;;;;;6214364;23;20189;-73
2021/12/06 11:46:30;;;;;;;14.95;8.57;;;;;;;;;;6214569;23;20175;-74
2021/12/06 11:48:59;;;;;;;15.25;8.80;;;;;;;;;;6215742;23;20659;-73
2021/12/06 11:51:28;;;;;;;10.93;8.35;;;;;;;;;;6215458;23;20167;-73
2021/12/06 11:53:57;;;;;;;14.68;8.93;;;;;;;;;;6215175;23;20177;-74
2021/12/06 11:56:26;;;;;;;15.05;8.13;;;;;;;;;;6215536;23;20570;-73
2021/12/06 11:58:57;;;;;;;11.65;8.10;;;;;;;;;;6215128;23;20195;-73
2021/12/06 12:01:25;;;;;;;13.52;8.95;;;;;;;;;;6215759;23;20241;-73
2021/12/06 12:03:56;;;;;;;14.15;8.73;;;;;;;;;;6215446;23;20163;-73
2021/12/06 12:06:28;;;;;;;13.18;9.02;;;;;;;;;;6214864;23;20155;-73
2021/12/06 12:09:04;;;;;;;12.93;7.95;;;;;;;;;;6214953;23;20245;-78
2021/12/06 12:11:31;;;;;;;13.82;9.25;;;;;;;;;;6214416;23;20166;-73
2021/12/06 12:14:11;;;;;;;12.52;8.98;;;;;;;;;;6214512;23;20206;-75
2021/12/06 12:16:39;;;;;;;12.48;8.85;;;;;;;;;;6215550;23;20218;-72
2021/12/06 12:19:06;;;;;;;12.98;8.60;;;;;;;;;;6214468;23;20173;-73
2021/12/06 12:21:34;;;;;;;13.82;9.32;;;;;;;;;;6212263;23;20170;-73
2021/12/06 12:24:01;;;;;;;13.43;9.60;;;;;;;;;;6214984;23;20187;-73
2021/12/06 12:26:35;;;;;;;15.52;10.65;;;;;;;;;;6215159;23;20171;-76
2021/12/06 12:29:13;;;;;;;14.98;10.70;;;;;;;;;;6215493;23;20152;-74
2021/12/06 12:31:41;;;;;;;19.33;10.27;;;;;;;;;;6209220;23;20273;-74
2021/12/06 12:34:08;;;;;;;15.50;9.95;;;;;;;;;;6214992;23;20167;-73
2021/12/06 12:36:35;;;;;;;10.60;7.75;;;;;;;;;;6215264;23;20701;-73
2021/12/06 12:39:03;;;;;;;12.82;9.43;;;;;;;;;;6214949;23;20174;-73
2021/12/06 12:41:33;;;;;;;13.13;8.60;;;;;;;;;;6214585;23;20213;-72
2021/12/06 12:44:05;;;;;;;12.55;7.82;;;;;;;;;;6214672;23;20167;-73
2021/12/06 12:46:34;;;;;;;8.15;5.82;;;;;;;;;;6215289;23;20159;-75
2021/12/06 12:49:03;;;;;;;8.27;6.43;;;;;;;;;;6214397;23;20163;-74
2021/12/06 12:51:32;;;;;;;8.50;6.80;;;;;;;;;;6214881;23;20199;-73
2021/12/06 12:54:07;;;;;;;8.25;5.82;;;;;;;;;;6214561;23;20622;-73
2021/12/06 12:56:37;;;;;;;7.10;4.88;;;;;;;;;;6215263;23;20240;-73
2021/12/06 12:59:23;;;;;;;9.07;6.50;;;;;;;;;;6214679;23;20175;-73
2021/12/06 13:02:05;;;;;;;8.27;5.60;;;;;;;;;;6214749;23;20154;-73
2021/12/06 13:05:00;;;;;;;7.65;5.93;;;;;;;;;;6211943;23;20471;-73
2021/12/06 13:07:31;;;;;;;8.10;5.32;;;;;;;;;;6211291;23;20700;-73
2021/12/06 13:10:00;;;;;;;10.02;6.75;;;;;;;;;;6213669;23;20241;-74
2021/12/06 13:12:31;;;;;;;9.80;5.85;;;;;;;;;;6211396;23;20173;-73
2021/12/06 13:15:11;;;;;;;8.80;5.95;;;;;;;;;;6213681;23;20603;-73
2021/12/06 13:17:46;;;;;;;11.48;5.55;;;;;;;;;;6214462;23;20156;-74
2021/12/06 13:20:17;;;;;;;10.35;6.65;;;;;;;;;;6214385;23;20155;-73
2021/12/06 13:22:48;;;;;;;6.97;6.15;;;2.10;86.70;;;;;;6215054;23;20155;-72
2021/12/06 13:25:17;;;;;;;10.52;6.40;;;;;;;;;;6214496;23;20163;-73
2021/12/06 13:27:45;;;;;;;8.27;6.57;;;;;;;;;;6214828;23;20178;-72
2021/12/06 13:30:21;;;;;;;7.93;5.45;;;;;;;;;;6213816;23;20908;-73
2021/12/06 13:32:50;;;;;;;8.05;6.20;;;;;;;;;;6214762;23;20155;-72
2021/12/06 13:35:20;;;;;;;10.18;6.22;;;;;;;;;;6214186;23;20532;-72
2021/12/06 13:38:00;;;;;;;8.93;6.45;;;;;;;;;;6214951;23;20530;-71
2021/12/06 13:40:28;;;;;;;7.32;5.18;;;;;;;;;;6214161;23;20189;-73
2021/12/06 13:42:55;;;;;;;9.63;6.07;;;;;;;;;;6214037;23;20167;-72
2021/12/06 13:45:25;;;;;;;9.45;6.18;;;;;;;;;;6214114;23;20204;-75
2021/12/06 13:48:08;;;;;;;6.57;5.70;;;;;;;;;;6214411;23;20684;-71
2021/12/06 13:50:35;;;;;;;7.78;4.47;;;;;;;;;;6214310;23;20162;-73
2021/12/06 13:53:03;;;;;;;7.63;4.93;;;;;;;;;;6214153;23;20163;-73
2021/12/06 13:55:32;;;;;;;8.27;5.63;;;;;;;;;;6214309;23;20178;-73
2021/12/06 13:58:02;;;;;;;10.75;6.13;;;;;;;;;;6214616;23;20227;-72
2021/12/06 14:00:41;;;;;;;6.00;4.60;;;;;;;;;;6213997;23;20174;-72
2021/12/06 14:03:12;;;;;;;7.15;5.32;;;;;;;;;;6214327;23;20174;-73
2021/12/06 14:05:41;;;;;;;7.05;4.72;;;;;;;;;;6214287;23;20185;-72
2021/12/06 14:08:08;;;;;;;6.55;4.55;;;;;;;;;;6214012;23;20599;-72
2021/12/06 14:10:37;;;;;;;6.35;3.97;;;;;;;;;;6214576;23;20181;-72
2021/12/06 14:13:07;;;;;;;8.35;4.95;;;;;;;;;;6213645;23;20174;-74
2021/12/06 14:15:47;;;;;;;10.73;5.10;;;;;;;;;;6214302;23;20163;-72
2021/12/06 14:18:17;;;;;;;6.97;4.22;;;;;;;;;;6214363;23;20151;-73
2021/12/06 14:20:47;;;;;;;7.63;4.80;;;;;;;;;;6214339;23;20151;-72
2021/12/06 14:23:15;;;;;;;6.65;5.20;;;;;;;;;;6214135;23;20497;-72
2021/12/06 14:25:49;;;;;;;7.57;5.63;;;;;;;;;;6214233;23;20170;-74
2021/12/06 14:28:17;;;;;;;8.45;5.20;;;;;;;;;;6214969;23;20151;-72
2021/12/06 14:30:46;;;;;;;7.40;4.90;;;;;;;;;;6210438;23;20193;-72
2021/12/06 14:33:17;;;;;;;6.93;4.90;;;;;;;;;;6214329;23;20585;-74
2021/12/06 14:35:44;;;;;;;6.18;4.72;;;;;;;;;;6213877;23;20201;-72
2021/12/06 14:38:12;;;;;;;7.00;4.45;;;;;;;;;;6214260;23;20170;-72
2021/12/06 14:40:41;;;;;;;8.10;5.15;;;;;;;;;;6214196;23;20186;-73
2021/12/06 14:43:12;;;;;;;7.75;5.38;;;;;;;;;;6214090;23;20537;-72
2021/12/06 14:45:39;;;;;;;6.18;4.43;;;;;;;;;;6214395;23;20246;-72
2021/12/06 14:48:15;;;;;;;7.15;4.97;;;;;;;;;;6213647;23;20180;-72
2021/12/06 14:51:01;;;;;;;10.32;5.20;;;;;;;;;;6214228;23;20155;-72
2021/12/06 14:53:37;;;;;;;10.02;5.00;;;;;;;;;;6214135;23;20190;-72
2021/12/06 14:56:20;;;;;;;10.48;6.00;;;;;;;;;;6213808;23;20225;-72
2021/12/06 14:58:48;;;;;;;7.90;5.65;;;;;;;;;;6214165;23;20466;-73
2021/12/06 15:01:17;;;;;;;13.63;6.38;;;;;;;;;;6214305;23;20167;-72